Time,TemperatureF,DewpointF,PressureIn,WindDirection,WindDirectionDegrees,WindSpeedMPH,WindSpeedGustMPH,Humidity,HourlyPrecipIn,Conditions,Clouds,dailyrainin,SoftwareType,DateUTC
2013-10-03 00:00:00,53.2,44.8,0.00,NW,308,2.2,2.7,73,0.35,,,0.00,VWS V13.01,2013-10-03 05:00:00,
2013-10-03 00:01:00,53.1,44.7,0.00,NW,321,2.7,2.7,73,0.35,,,0.00,VWS V13.01,2013-10-03 05:01:00,
2013-10-03 00:02:00,53.1,44.7,0.00,NW,307,4.0,4.0,73,0.35,,,0.00,VWS V13.01,2013-10-03 05:02:00,
2013-10-03 00:03:00,53.1,44.7,0.00,NW,322,0.0,4.0,73,0.35,,,0.00,VWS V13.01,2013-10-03 05:03:00,
2013-10-03 00:04:00,53.1,44.7,0.00,NW,320,0.0,2.2,73,0.39,,,0.04,VWS V13.01,2013-10-03 05:04:00,
2013-10-03 00:05:00,53.1,44.7,0.00,NNW,346,0.0,0.0,73,0.39,,,0.04,VWS V13.01,2013-10-03 05:05:00,
2013-10-03 00:06:00,53.1,44.7,0.00,NW,308,0.0,0.0,73,0.39,,,0.04,VWS V13.01,2013-10-03 05:06:00,
2013-10-03 00:07:00,53.1,44.7,0.00,NW,308,0.0,0.0,73,0.35,,,0.04,VWS V13.01,2013-10-03 05:07:00,
2013-10-03 00:08:00,53.1,44.7,0.00,NW,309,0.0,0.0,73,0.35,,,0.04,VWS V13.01,2013-10-03 05:08:00,
2013-10-03 00:09:00,53.1,44.7,0.00,East,92,2.2,2.2,73,0.35,,,0.04,VWS V13.01,2013-10-03 05:09:00,
2013-10-03 00:10:00,53.1,44.7,0.00,ENE,72,0.0,2.2,73,0.31,,,0.04,VWS V13.01,2013-10-03 05:10:00,
2013-10-03 00:11:00,53.2,44.8,0.00,ESE,105,0.0,0.0,73,0.39,,,0.12,VWS V13.01,2013-10-03 05:11:00,
2013-10-03 00:12:00,53.2,44.8,0.00,ESE,105,0.0,0.0,73,0.39,,,0.12,VWS V13.01,2013-10-03 05:12:00,
2013-10-03 00:13:00,53.2,44.8,0.00,ESE,105,4.5,4.5,73,0.39,,,0.12,VWS V13.01,2013-10-03 05:13:00,
2013-10-03 00:14:00,53.2,44.8,0.00,ESE,108,4.0,4.5,73,0.39,,,0.12,VWS V13.01,2013-10-03 05:14:00,
2013-10-03 00:15:00,53.8,46.0,0.00,ESE,116,6.3,7.6,75,0.43,,,0.16,VWS V13.01,2013-10-03 05:15:00,
2013-10-03 00:16:00,54.1,47.8,0.00,ESE,109,7.6,10.5,79,0.43,,,0.16,VWS V13.01,2013-10-03 05:16:00,
2013-10-03 00:17:00,54.1,47.8,0.00,East,100,7.6,10.5,79,0.43,,,0.16,VWS V13.01,2013-10-03 05:17:00,
2013-10-03 00:18:00,54.0,47.6,0.00,ESE,104,8.3,10.5,79,0.43,,,0.16,VWS V13.01,2013-10-03 05:18:00,
2013-10-03 00:19:00,54.0,47.6,0.00,ESE,110,6.3,8.7,79,0.39,,,0.16,VWS V13.01,2013-10-03 05:19:00,
2013-10-03 00:20:00,54.1,48.1,0.00,ESE,102,6.3,8.1,80,0.39,,,0.16,VWS V13.01,2013-10-03 05:20:00,
2013-10-03 00:21:00,54.1,48.5,0.00,ESE,109,3.1,6.3,81,0.39,,,0.16,VWS V13.01,2013-10-03 05:21:00,
2013-10-03 00:22:00,54.1,48.5,0.00,ESE,103,6.3,6.3,81,0.43,,,0.20,VWS V13.01,2013-10-03 05:22:00,
2013-10-03 00:23:00,54.1,48.8,0.00,ESE,105,8.3,8.3,82,0.39,,,0.20,VWS V13.01,2013-10-03 05:23:00,
2013-10-03 00:24:00,54.3,49.0,0.00,ESE,106,8.1,8.3,82,0.43,,,0.24,VWS V13.01,2013-10-03 05:24:00,
2013-10-03 00:25:00,54.3,49.0,0.00,ESE,108,8.1,8.7,82,0.43,,,0.24,VWS V13.01,2013-10-03 05:25:00,
2013-10-03 00:26:00,54.3,49.0,0.00,SE,125,10.1,10.1,82,0.43,,,0.24,VWS V13.01,2013-10-03 05:26:00,
2013-10-03 00:27:00,54.3,49.0,0.00,ESE,118,11.0,11.0,82,0.43,,,0.24,VWS V13.01,2013-10-03 05:27:00,
2013-10-03 00:28:00,54.3,49.0,0.00,ESE,107,9.6,11.0,82,0.43,,,0.24,VWS V13.01,2013-10-03 05:28:00,
2013-10-03 00:29:00,54.3,49.3,0.00,ESE,111,7.6,9.6,83,0.43,,,0.24,VWS V13.01,2013-10-03 05:29:00,
2013-10-03 00:30:00,54.3,49.3,0.00,ESE,121,7.6,10.5,83,0.43,,,0.28,VWS V13.01,2013-10-03 05:30:00,
2013-10-03 00:31:00,54.3,49.3,0.00,ESE,112,12.3,12.3,83,0.43,,,0.28,VWS V13.01,2013-10-03 05:31:00,
2013-10-03 00:32:00,54.3,49.3,0.00,ESE,104,10.1,12.3,83,0.43,,,0.28,VWS V13.01,2013-10-03 05:32:00,
2013-10-03 00:33:00,54.3,49.3,0.00,East,99,10.1,11.0,83,0.39,,,0.28,VWS V13.01,2013-10-03 05:33:00,
2013-10-03 00:34:00,54.3,49.3,0.00,ESE,112,10.5,11.0,83,0.39,,,0.28,VWS V13.01,2013-10-03 05:34:00,
2013-10-03 00:35:00,54.3,49.3,0.00,ESE,113,8.7,10.5,83,0.43,,,0.31,VWS V13.01,2013-10-03 05:35:00,
2013-10-03 00:36:00,54.3,49.3,0.00,ESE,119,8.1,8.7,83,0.39,,,0.31,VWS V13.01,2013-10-03 05:36:00,
2013-10-03 00:37:00,54.3,49.3,0.00,ESE,111,7.2,8.1,83,0.39,,,0.31,VWS V13.01,2013-10-03 05:37:00,
2013-10-03 00:38:00,54.3,49.3,0.00,ESE,112,8.3,8.3,83,0.35,,,0.31,VWS V13.01,2013-10-03 05:38:00,
2013-10-03 00:39:00,54.5,49.5,0.00,ESE,107,7.6,10.5,83,0.35,,,0.31,VWS V13.01,2013-10-03 05:39:00,
2013-10-03 00:40:00,54.3,49.3,0.00,East,97,8.1,8.3,83,0.35,,,0.31,VWS V13.01,2013-10-03 05:40:00,
2013-10-03 00:41:00,54.3,49.3,0.00,ESE,110,9.6,12.3,83,0.39,,,0.35,VWS V13.01,2013-10-03 05:41:00,
2013-10-03 00:42:00,54.5,49.8,0.00,ESE,102,8.3,15.0,84,0.39,,,0.35,VWS V13.01,2013-10-03 05:42:00,
2013-10-03 00:43:00,54.5,49.8,0.00,ESE,122,11.4,13.6,84,0.39,,,0.35,VWS V13.01,2013-10-03 05:43:00,
2013-10-03 00:44:00,54.5,49.8,0.00,East,93,11.9,13.2,84,0.39,,,0.35,VWS V13.01,2013-10-03 05:44:00,
2013-10-03 00:45:00,54.5,49.8,0.00,ESE,110,10.5,12.8,84,0.39,,,0.35,VWS V13.01,2013-10-03 05:45:00,
2013-10-03 00:46:00,54.5,49.8,0.00,East,101,11.0,12.8,84,0.39,,,0.35,VWS V13.01,2013-10-03 05:46:00,
2013-10-03 00:47:00,54.5,49.5,0.00,ESE,112,14.1,14.1,83,0.39,,,0.35,VWS V13.01,2013-10-03 05:47:00,
2013-10-03 00:48:00,54.5,49.5,0.00,ESE,105,11.0,17.0,83,0.39,,,0.35,VWS V13.01,2013-10-03 05:48:00,
2013-10-03 00:49:00,54.5,49.5,0.00,ESE,105,14.1,15.9,83,0.39,,,0.35,VWS V13.01,2013-10-03 05:49:00,
2013-10-03 00:50:00,54.7,50.0,0.00,SE,135,10.5,14.1,84,0.43,,,0.39,VWS V13.01,2013-10-03 05:50:00,
2013-10-03 00:51:00,54.5,49.8,0.00,ESE,116,12.8,16.8,84,0.43,,,0.39,VWS V13.01,2013-10-03 05:51:00,
2013-10-03 00:52:00,54.5,49.8,0.00,SE,136,9.2,13.2,84,0.43,,,0.39,VWS V13.01,2013-10-03 05:52:00,
2013-10-03 00:53:00,54.5,49.5,0.00,ESE,116,12.8,17.4,83,0.43,,,0.39,VWS V13.01,2013-10-03 05:53:00,
2013-10-03 00:54:00,54.5,49.5,0.00,SE,137,11.0,14.5,83,0.39,,,0.39,VWS V13.01,2013-10-03 05:54:00,
2013-10-03 00:55:00,54.3,49.3,0.00,SE,141,7.6,11.0,83,0.39,,,0.39,VWS V13.01,2013-10-03 05:55:00,
2013-10-03 00:56:00,54.5,49.5,0.00,ESE,114,10.1,10.1,83,0.39,,,0.39,VWS V13.01,2013-10-03 05:56:00,
2013-10-03 00:57:00,54.5,49.5,0.00,ESE,110,10.1,10.1,83,0.39,,,0.39,VWS V13.01,2013-10-03 05:57:00,
2013-10-03 00:58:00,54.5,49.5,0.00,SSE,166,12.8,12.8,83,0.39,,,0.39,VWS V13.01,2013-10-03 05:58:00,
2013-10-03 00:59:00,54.3,49.3,0.00,ESE,105,11.0,12.8,83,0.39,,,0.39,VWS V13.01,2013-10-03 05:59:00,
2013-10-03 01:00:00,54.3,49.0,0.00,ESE,115,11.4,11.4,82,0.39,,,0.39,VWS V13.01,2013-10-03 06:00:00,
2013-10-03 01:01:00,54.5,49.1,0.00,ESE,102,10.5,11.0,82,0.39,,,0.39,VWS V13.01,2013-10-03 06:01:00,
2013-10-03 01:02:00,54.5,49.1,0.00,ESE,109,8.7,11.0,82,0.39,,,0.39,VWS V13.01,2013-10-03 06:02:00,
2013-10-03 01:03:00,54.7,49.3,0.00,SE,126,10.5,10.5,82,0.39,,,0.39,VWS V13.01,2013-10-03 06:03:00,
2013-10-03 01:04:00,54.7,49.3,0.00,ESE,116,8.3,12.3,82,0.39,,,0.39,VWS V13.01,2013-10-03 06:04:00,
2013-10-03 01:05:00,54.9,49.5,0.00,ESE,105,11.0,11.0,82,0.35,,,0.39,VWS V13.01,2013-10-03 06:05:00,
2013-10-03 01:06:00,54.7,49.3,0.00,ESE,114,8.3,8.3,82,0.35,,,0.39,VWS V13.01,2013-10-03 06:06:00,
2013-10-03 01:07:00,54.7,49.3,0.00,ESE,110,6.3,8.3,82,0.35,,,0.39,VWS V13.01,2013-10-03 06:07:00,
2013-10-03 01:08:00,54.9,49.5,0.00,ESE,121,7.6,10.5,82,0.35,,,0.39,VWS V13.01,2013-10-03 06:08:00,